Broome International Airport
YBRM : now visible

Airfield :











YOU CAN JOIN US ON...

 
LOGIN :

Register | Disclaimer

   EN    FR    IT 

 









Legend :    VFR   Marginal VFR   IFR   Intensive IFR   Very Intensive IFR
Visi :
Ceiling :
>= 8 km
>= 3000ft
5 to 8 km
1000 to 3000 ft
1500m to 5 km
500 to 1000 ft
800 to 1500m
200 to 500 ft
< 800m
< 200 ft
Symbols :   Thunderstorms  Fog  Heavy snow  Heavy precipitations  Wind > 20 kt






- Airport Elevation : 56 ft
- IATA code : BME


YBRM - Broome International

CURRENT METAR :
  • 021800Z AUTO 12012KT 9999 // NCD 21/05 Q1015 RF00.0/000.0

EXPIRED METARs :
  • 021730Z AUTO 12012KT 9999 // NCD 22/06 Q1015 RF00.0/000.0
  • 021700Z AUTO 13013KT 9999 // NCD 22/06 Q1016 RF00.0/000.0
  • 021630Z AUTO 13015KT 9999 // SCT100 22/06 Q1016 RF00.0/000.0
  • 021600Z AUTO 14012KT 9999 // NCD 22/07 Q1016
  • 021530Z AUTO 14011KT 9999 // NCD 23/08 Q1016 RF00.0/000.0

TAF TAF YBRM
Valid from the 02 at 18:00 until the 03 at 18:00 UTC


021703Z 0218/0318 14012KT CAVOK
FM030000 11017G27KT CAVOK
FM030430 12012KT CAVOK
FM030900 14009KT CAVOK
YBBB FIR / Oceania



MET'MAP, your aeronautical weather chart ! - Copyright ORBIFLY December 2007 - Disclaimer

ORBIFLY MET'MAP TEAM :

Programming & Development : Alexandra Zaïnal
Concept & original design : Baudouin d'Aumeries
Assistance for programming : Marc-Olivier Méhu
Technical & hardware support : Manuel Goepfert

Contact : metmap@orbifly.com




SOURCES & CREDITS :

   NOAA       Earth
Advisory